sensor_id;sensor_type;location;lat;lon;timestamp;temperature;humidity
17954;DHT22;9102;53.548;9.926;2023-04-25T00:00:55;8.10;99.90
17954;DHT22;9102;53.548;9.926;2023-04-25T00:03:23;8.10;99.90
17954;DHT22;9102;53.548;9.926;2023-04-25T00:05:50;8.10;99.90
17954;DHT22;9102;53.548;9.926;2023-04-25T00:08:18;8.10;99.90
17954;DHT22;9102;53.548;9.926;2023-04-25T00:10:45;8.10;99.90
17954;DHT22;9102;53.548;9.926;2023-04-25T00:13:11;8.00;99.90
17954;DHT22;9102;53.548;9.926;2023-04-25T00:15:40;7.90;99.90
17954;DHT22;9102;53.548;9.926;2023-04-25T00:18:08;7.80;99.90
17954;DHT22;9102;53.548;9.926;2023-04-25T00:20:35;7.80;99.90
17954;DHT22;9102;53.548;9.926;2023-04-25T00:23:02;7.60;99.90
17954;DHT22;9102;53.548;9.926;2023-04-25T00:25:29;7.60;99.90
17954;DHT22;9102;53.548;9.926;2023-04-25T00:27:55;7.60;99.90
17954;DHT22;9102;53.548;9.926;2023-04-25T00:30:22;7.60;99.90
17954;DHT22;9102;53.548;9.926;2023-04-25T00:32:50;7.70;99.90
17954;DHT22;9102;53.548;9.926;2023-04-25T00:35:17;7.60;99.90
17954;DHT22;9102;53.548;9.926;2023-04-25T00:37:44;7.50;99.90
17954;DHT22;9102;53.548;9.926;2023-04-25T00:40:11;7.50;99.90
17954;DHT22;9102;53.548;9.926;2023-04-25T00:42:38;7.50;99.90
17954;DHT22;9102;53.548;9.926;2023-04-25T00:45:06;7.40;99.90
17954;DHT22;9102;53.548;9.926;2023-04-25T00:47:36;7.40;99.90
17954;DHT22;9102;53.548;9.926;2023-04-25T00:50:05;7.40;99.90
17954;DHT22;9102;53.548;9.926;2023-04-25T00:52:32;7.40;99.90
17954;DHT22;9102;53.548;9.926;2023-04-25T00:54:59;7.40;99.90
17954;DHT22;9102;53.548;9.926;2023-04-25T00:57:26;7.40;99.90
17954;DHT22;9102;53.548;9.926;2023-04-25T00:59:54;7.40;99.90
17954;DHT22;9102;53.548;9.926;2023-04-25T01:02:21;7.40;99.90
17954;DHT22;9102;53.548;9.926;2023-04-25T01:04:48;7.40;99.90
17954;DHT22;9102;53.548;9.926;2023-04-25T01:07:17;7.50;99.90
17954;DHT22;9102;53.548;9.926;2023-04-25T01:09:44;7.50;99.90
17954;DHT22;9102;53.548;9.926;2023-04-25T01:12:11;7.50;99.90
17954;DHT22;9102;53.548;9.926;2023-04-25T01:14:38;7.50;99.90
17954;DHT22;9102;53.548;9.926;2023-04-25T01:17:05;7.50;99.90
17954;DHT22;9102;53.548;9.926;2023-04-25T01:19:33;7.50;99.90
17954;DHT22;9102;53.548;9.926;2023-04-25T01:22:01;7.60;99.90
17954;DHT22;9102;53.548;9.926;2023-04-25T01:24:29;7.60;99.90
17954;DHT22;9102;53.548;9.926;2023-04-25T01:26:56;7.60;99.90
17954;DHT22;9102;53.548;9.926;2023-04-25T01:29:24;7.60;99.90
17954;DHT22;9102;53.548;9.926;2023-04-25T01:31:51;7.70;99.90
17954;DHT22;9102;53.548;9.926;2023-04-25T01:34:18;7.60;99.90
17954;DHT22;9102;53.548;9.926;2023-04-25T01:36:46;7.60;99.90
17954;DHT22;9102;53.548;9.926;2023-04-25T01:39:15;7.60;99.90
17954;DHT22;9102;53.548;9.926;2023-04-25T01:41:42;7.50;99.90
17954;DHT22;9102;53.548;9.926;2023-04-25T01:44:09;7.50;99.90
17954;DHT22;9102;53.548;9.926;2023-04-25T01:46:36;7.50;99.90
17954;DHT22;9102;53.548;9.926;2023-04-25T01:49:03;7.70;99.90
17954;DHT22;9102;53.548;9.926;2023-04-25T01:51:30;7.50;99.90
17954;DHT22;9102;53.548;9.926;2023-04-25T01:53:57;7.50;99.90
17954;DHT22;9102;53.548;9.926;2023-04-25T01:56:29;7.50;99.90
17954;DHT22;9102;53.548;9.926;2023-04-25T01:58:56;7.60;99.90
17954;DHT22;9102;53.548;9.926;2023-04-25T02:01:23;7.50;99.90
17954;DHT22;9102;53.548;9.926;2023-04-25T02:03:50;7.50;99.90
17954;DHT22;9102;53.548;9.926;2023-04-25T02:06:17;7.50;99.90
17954;DHT22;9102;53.548;9.926;2023-04-25T02:08:44;7.50;99.90
17954;DHT22;9102;53.548;9.926;2023-04-25T02:11:11;7.50;99.90
17954;DHT22;9102;53.548;9.926;2023-04-25T02:13:39;7.50;99.90
17954;DHT22;9102;53.548;9.926;2023-04-25T02:16:06;7.50;99.90
17954;DHT22;9102;53.548;9.926;2023-04-25T02:18:33;7.50;99.90
17954;DHT22;9102;53.548;9.926;2023-04-25T02:20:59;7.50;99.90
17954;DHT22;9102;53.548;9.926;2023-04-25T02:23:27;7.40;99.90
17954;DHT22;9102;53.548;9.926;2023-04-25T02:25:54;7.40;99.90
17954;DHT22;9102;53.548;9.926;2023-04-25T02:28:23;7.30;99.90
17954;DHT22;9102;53.548;9.926;2023-04-25T02:30:51;7.40;99.90
17954;DHT22;9102;53.548;9.926;2023-04-25T02:33:18;7.20;99.90
17954;DHT22;9102;53.548;9.926;2023-04-25T02:35:46;7.40;99.90
17954;DHT22;9102;53.548;9.926;2023-04-25T02:38:13;7.50;99.90
17954;DHT22;9102;53.548;9.926;2023-04-25T02:40:40;7.30;99.90
17954;DHT22;9102;53.548;9.926;2023-04-25T02:43:07;7.20;99.90
17954;DHT22;9102;53.548;9.926;2023-04-25T02:45:34;7.30;99.90
17954;DHT22;9102;53.548;9.926;2023-04-25T02:48:03;7.20;99.90
17954;DHT22;9102;53.548;9.926;2023-04-25T02:50:30;7.30;99.90
17954;DHT22;9102;53.548;9.926;2023-04-25T02:52:56;7.30;99.90
17954;DHT22;9102;53.548;9.926;2023-04-25T02:55:23;7.30;99.90
17954;DHT22;9102;53.548;9.926;2023-04-25T02:57:50;7.20;99.90
17954;DHT22;9102;53.548;9.926;2023-04-25T03:00:17;7.20;99.90
17954;DHT22;9102;53.548;9.926;2023-04-25T03:02:44;7.20;99.90
17954;DHT22;9102;53.548;9.926;2023-04-25T03:05:12;7.10;99.90
17954;DHT22;9102;53.548;9.926;2023-04-25T03:07:39;7.30;99.90
17954;DHT22;9102;53.548;9.926;2023-04-25T03:10:06;7.20;99.90
17954;DHT22;9102;53.548;9.926;2023-04-25T03:12:33;7.10;99.90
17954;DHT22;9102;53.548;9.926;2023-04-25T03:15:00;7.20;99.90
17954;DHT22;9102;53.548;9.926;2023-04-25T03:17:27;6.90;99.90
17954;DHT22;9102;53.548;9.926;2023-04-25T03:19:54;7.00;99.90
17954;DHT22;9102;53.548;9.926;2023-04-25T03:22:22;6.90;99.90
17954;DHT22;9102;53.548;9.926;2023-04-25T03:24:49;6.90;99.90
17954;DHT22;9102;53.548;9.926;2023-04-25T03:27:16;6.90;99.90
17954;DHT22;9102;53.548;9.926;2023-04-25T03:29:43;6.80;99.90
17954;DHT22;9102;53.548;9.926;2023-04-25T03:32:10;6.80;99.90
17954;DHT22;9102;53.548;9.926;2023-04-25T03:34:36;6.70;99.90
17954;DHT22;9102;53.548;9.926;2023-04-25T03:37:03;6.70;99.90
17954;DHT22;9102;53.548;9.926;2023-04-25T03:39:31;6.60;99.90
17954;DHT22;9102;53.548;9.926;2023-04-25T03:41:58;6.60;99.90
17954;DHT22;9102;53.548;9.926;2023-04-25T03:44:25;6.60;99.90
17954;DHT22;9102;53.548;9.926;2023-04-25T03:46:52;6.60;99.90
17954;DHT22;9102;53.548;9.926;2023-04-25T03:49:18;6.70;99.90
17954;DHT22;9102;53.548;9.926;2023-04-25T03:51:45;6.70;99.90
17954;DHT22;9102;53.548;9.926;2023-04-25T03:54:12;6.80;99.90
17954;DHT22;9102;53.548;9.926;2023-04-25T03:56:40;6.80;99.90
17954;DHT22;9102;53.548;9.926;2023-04-25T03:59:07;6.80;99.90
17954;DHT22;9102;53.548;9.926;2023-04-25T04:01:34;6.70;99.90
17954;DHT22;9102;53.548;9.926;2023-04-25T04:04:01;6.70;99.90
17954;DHT22;9102;53.548;9.926;2023-04-25T04:06:28;6.80;99.90
17954;DHT22;9102;53.548;9.926;2023-04-25T04:08:55;6.80;99.90
17954;DHT22;9102;53.548;9.926;2023-04-25T04:11:22;6.80;99.90
17954;DHT22;9102;53.548;9.926;2023-04-25T04:13:50;6.90;99.90
17954;DHT22;9102;53.548;9.926;2023-04-25T04:16:17;6.60;99.90
17954;DHT22;9102;53.548;9.926;2023-04-25T04:18:45;6.60;99.90
17954;DHT22;9102;53.548;9.926;2023-04-25T04:21:12;6.60;99.90
17954;DHT22;9102;53.548;9.926;2023-04-25T04:23:38;6.60;99.90
17954;DHT22;9102;53.548;9.926;2023-04-25T04:26:05;6.60;99.90
17954;DHT22;9102;53.548;9.926;2023-04-25T04:28:32;6.50;99.90
17954;DHT22;9102;53.548;9.926;2023-04-25T04:31:00;6.50;99.90
17954;DHT22;9102;53.548;9.926;2023-04-25T04:33:28;6.50;99.90
17954;DHT22;9102;53.548;9.926;2023-04-25T04:35:54;6.50;99.90
17954;DHT22;9102;53.548;9.926;2023-04-25T04:38:21;6.50;99.90
17954;DHT22;9102;53.548;9.926;2023-04-25T04:40:49;6.50;99.90
17954;DHT22;9102;53.548;9.926;2023-04-25T04:43:16;6.50;99.90
17954;DHT22;9102;53.548;9.926;2023-04-25T04:45:44;6.60;99.90
17954;DHT22;9102;53.548;9.926;2023-04-25T04:48:12;6.70;99.90
17954;DHT22;9102;53.548;9.926;2023-04-25T04:50:39;6.70;99.90
17954;DHT22;9102;53.548;9.926;2023-04-25T04:53:07;6.80;99.90
17954;DHT22;9102;53.548;9.926;2023-04-25T04:55:34;6.80;99.90
17954;DHT22;9102;53.548;9.926;2023-04-25T04:58:01;6.90;99.90
17954;DHT22;9102;53.548;9.926;2023-04-25T05:00:27;7.00;99.90
17954;DHT22;9102;53.548;9.926;2023-04-25T05:02:54;6.90;99.90
17954;DHT22;9102;53.548;9.926;2023-04-25T05:05:23;7.10;99.90
17954;DHT22;9102;53.548;9.926;2023-04-25T05:07:49;7.00;99.90
17954;DHT22;9102;53.548;9.926;2023-04-25T05:10:17;7.10;99.90
17954;DHT22;9102;53.548;9.926;2023-04-25T05:12:44;7.00;99.90
17954;DHT22;9102;53.548;9.926;2023-04-25T05:15:11;7.00;99.90
17954;DHT22;9102;53.548;9.926;2023-04-25T05:17:38;7.00;99.90
17954;DHT22;9102;53.548;9.926;2023-04-25T05:20:06;6.90;99.90
17954;DHT22;9102;53.548;9.926;2023-04-25T05:22:35;6.70;99.90
17954;DHT22;9102;53.548;9.926;2023-04-25T05:25:03;6.60;99.90
17954;DHT22;9102;53.548;9.926;2023-04-25T05:27:30;6.50;99.90
17954;DHT22;9102;53.548;9.926;2023-04-25T05:29:56;6.50;99.90
17954;DHT22;9102;53.548;9.926;2023-04-25T05:32:23;6.50;99.90
17954;DHT22;9102;53.548;9.926;2023-04-25T05:34:50;6.50;99.90
17954;DHT22;9102;53.548;9.926;2023-04-25T05:37:17;6.60;99.90
17954;DHT22;9102;53.548;9.926;2023-04-25T05:39:46;6.60;99.90
17954;DHT22;9102;53.548;9.926;2023-04-25T05:42:13;6.80;99.90
17954;DHT22;9102;53.548;9.926;2023-04-25T05:44:40;6.90;99.90
17954;DHT22;9102;53.548;9.926;2023-04-25T05:47:07;7.00;99.90
17954;DHT22;9102;53.548;9.926;2023-04-25T05:49:33;7.10;99.90
17954;DHT22;9102;53.548;9.926;2023-04-25T05:52:00;7.10;99.90
17954;DHT22;9102;53.548;9.926;2023-04-25T05:54:27;7.20;99.90
17954;DHT22;9102;53.548;9.926;2023-04-25T05:56:56;7.30;99.90
17954;DHT22;9102;53.548;9.926;2023-04-25T05:59:23;7.30;99.90
17954;DHT22;9102;53.548;9.926;2023-04-25T06:01:49;7.30;99.90
17954;DHT22;9102;53.548;9.926;2023-04-25T06:04:17;7.30;99.90
17954;DHT22;9102;53.548;9.926;2023-04-25T06:06:43;7.40;99.90
17954;DHT22;9102;53.548;9.926;2023-04-25T06:09:10;7.40;99.90
17954;DHT22;9102;53.548;9.926;2023-04-25T06:11:37;7.50;99.90
17954;DHT22;9102;53.548;9.926;2023-04-25T06:14:06;7.70;99.90
17954;DHT22;9102;53.548;9.926;2023-04-25T06:16:32;7.80;99.90
17954;DHT22;9102;53.548;9.926;2023-04-25T06:18:59;7.90;99.90
17954;DHT22;9102;53.548;9.926;2023-04-25T06:21:26;7.70;99.90
17954;DHT22;9102;53.548;9.926;2023-04-25T06:23:53;7.70;99.90
17954;DHT22;9102;53.548;9.926;2023-04-25T06:26:20;7.70;99.90
17954;DHT22;9102;53.548;9.926;2023-04-25T06:28:47;7.70;99.90
17954;DHT22;9102;53.548;9.926;2023-04-25T06:31:15;7.80;99.90
17954;DHT22;9102;53.548;9.926;2023-04-25T06:33:42;7.70;99.90
17954;DHT22;9102;53.548;9.926;2023-04-25T06:36:08;7.50;99.90
17954;DHT22;9102;53.548;9.926;2023-04-25T06:38:35;7.30;99.90
17954;DHT22;9102;53.548;9.926;2023-04-25T06:41:02;7.00;99.90
17954;DHT22;9102;53.548;9.926;2023-04-25T06:43:29;7.10;99.90
17954;DHT22;9102;53.548;9.926;2023-04-25T06:45:58;7.10;99.90
17954;DHT22;9102;53.548;9.926;2023-04-25T06:48:27;7.20;99.90
17954;DHT22;9102;53.548;9.926;2023-04-25T06:50:54;7.30;99.90
17954;DHT22;9102;53.548;9.926;2023-04-25T06:53:22;7.30;99.90
17954;DHT22;9102;53.548;9.926;2023-04-25T06:55:48;7.40;99.90
17954;DHT22;9102;53.548;9.926;2023-04-25T06:58:15;7.50;99.90
17954;DHT22;9102;53.548;9.926;2023-04-25T07:00:42;7.60;99.90
17954;DHT22;9102;53.548;9.926;2023-04-25T07:03:09;7.70;99.90
17954;DHT22;9102;53.548;9.926;2023-04-25T07:05:37;7.70;99.90
17954;DHT22;9102;53.548;9.926;2023-04-25T07:08:04;7.80;99.90
17954;DHT22;9102;53.548;9.926;2023-04-25T07:10:31;7.90;99.90
17954;DHT22;9102;53.548;9.926;2023-04-25T07:12:58;8.10;99.90
17954;DHT22;9102;53.548;9.926;2023-04-25T07:15:25;8.40;99.90
17954;DHT22;9102;53.548;9.926;2023-04-25T07:17:52;8.60;99.90
17954;DHT22;9102;53.548;9.926;2023-04-25T07:20:18;8.90;99.90
17954;DHT22;9102;53.548;9.926;2023-04-25T07:22:46;8.90;99.90
17954;DHT22;9102;53.548;9.926;2023-04-25T07:25:13;9.00;99.90
17954;DHT22;9102;53.548;9.926;2023-04-25T07:27:40;9.10;99.90
17954;DHT22;9102;53.548;9.926;2023-04-25T07:30:08;8.90;99.90
17954;DHT22;9102;53.548;9.926;2023-04-25T07:32:35;9.00;99.90
17954;DHT22;9102;53.548;9.926;2023-04-25T07:35:01;8.90;99.90
17954;DHT22;9102;53.548;9.926;2023-04-25T07:37:29;8.90;99.90
17954;DHT22;9102;53.548;9.926;2023-04-25T07:39:57;8.80;99.90
17954;DHT22;9102;53.548;9.926;2023-04-25T07:42:24;8.80;99.90
17954;DHT22;9102;53.548;9.926;2023-04-25T07:44:51;8.80;99.90
17954;DHT22;9102;53.548;9.926;2023-04-25T07:47:18;9.00;99.90
17954;DHT22;9102;53.548;9.926;2023-04-25T07:49:45;9.20;99.90
17954;DHT22;9102;53.548;9.926;2023-04-25T07:52:12;9.30;99.90
17954;DHT22;9102;53.548;9.926;2023-04-25T07:54:39;9.20;99.90
17954;DHT22;9102;53.548;9.926;2023-04-25T07:57:07;9.20;99.90
17954;DHT22;9102;53.548;9.926;2023-04-25T07:59:34;9.20;99.90
17954;DHT22;9102;53.548;9.926;2023-04-25T08:02:01;9.40;99.90
17954;DHT22;9102;53.548;9.926;2023-04-25T08:04:31;9.40;99.90
17954;DHT22;9102;53.548;9.926;2023-04-25T08:06:58;9.40;99.90
17954;DHT22;9102;53.548;9.926;2023-04-25T08:09:25;9.50;99.90
17954;DHT22;9102;53.548;9.926;2023-04-25T08:11:52;9.50;99.90
17954;DHT22;9102;53.548;9.926;2023-04-25T08:14:20;9.60;99.90
17954;DHT22;9102;53.548;9.926;2023-04-25T08:16:47;9.80;99.90
17954;DHT22;9102;53.548;9.926;2023-04-25T08:19:14;9.90;99.90
17954;DHT22;9102;53.548;9.926;2023-04-25T08:21:40;9.90;99.90
17954;DHT22;9102;53.548;9.926;2023-04-25T08:24:07;9.80;99.90
17954;DHT22;9102;53.548;9.926;2023-04-25T08:26:34;9.70;99.90
17954;DHT22;9102;53.548;9.926;2023-04-25T08:29:02;9.50;99.90
17954;DHT22;9102;53.548;9.926;2023-04-25T08:31:31;9.50;99.90
17954;DHT22;9102;53.548;9.926;2023-04-25T08:33:58;9.60;99.90
17954;DHT22;9102;53.548;9.926;2023-04-25T08:36:24;9.70;99.90
17954;DHT22;9102;53.548;9.926;2023-04-25T08:38:53;9.70;99.90
17954;DHT22;9102;53.548;9.926;2023-04-25T08:41:21;10.00;99.90
17954;DHT22;9102;53.548;9.926;2023-04-25T08:43:49;10.00;99.90
17954;DHT22;9102;53.548;9.926;2023-04-25T08:46:18;10.10;99.90
17954;DHT22;9102;53.548;9.926;2023-04-25T08:48:46;10.10;99.90
17954;DHT22;9102;53.548;9.926;2023-04-25T08:51:17;9.90;99.90
17954;DHT22;9102;53.548;9.926;2023-04-25T08:53:49;9.60;99.90
17954;DHT22;9102;53.548;9.926;2023-04-25T08:56:18;9.40;99.90
17954;DHT22;9102;53.548;9.926;2023-04-25T08:58:48;9.30;99.90
17954;DHT22;9102;53.548;9.926;2023-04-25T09:01:15;9.00;99.90
17954;DHT22;9102;53.548;9.926;2023-04-25T09:03:43;8.80;99.90
17954;DHT22;9102;53.548;9.926;2023-04-25T09:06:12;8.80;99.90
17954;DHT22;9102;53.548;9.926;2023-04-25T09:08:39;8.90;99.90
17954;DHT22;9102;53.548;9.926;2023-04-25T09:11:06;8.90;99.90
17954;DHT22;9102;53.548;9.926;2023-04-25T09:13:33;8.80;99.90
17954;DHT22;9102;53.548;9.926;2023-04-25T09:16:00;8.80;99.90
17954;DHT22;9102;53.548;9.926;2023-04-25T09:18:28;8.70;99.90
17954;DHT22;9102;53.548;9.926;2023-04-25T09:20:56;8.90;99.90
17954;DHT22;9102;53.548;9.926;2023-04-25T09:23:26;9.00;99.90
17954;DHT22;9102;53.548;9.926;2023-04-25T09:25:53;9.00;99.90
17954;DHT22;9102;53.548;9.926;2023-04-25T09:28:23;8.90;99.90
17954;DHT22;9102;53.548;9.926;2023-04-25T09:30:55;9.00;99.90
17954;DHT22;9102;53.548;9.926;2023-04-25T09:33:28;9.00;99.90
17954;DHT22;9102;53.548;9.926;2023-04-25T09:36:02;9.10;99.90
17954;DHT22;9102;53.548;9.926;2023-04-25T09:38:32;9.40;99.90
17954;DHT22;9102;53.548;9.926;2023-04-25T09:41:06;9.70;99.90
17954;DHT22;9102;53.548;9.926;2023-04-25T09:43:32;9.00;99.90
17954;DHT22;9102;53.548;9.926;2023-04-25T09:46:00;8.50;99.90
17954;DHT22;9102;53.548;9.926;2023-04-25T09:48:28;8.40;99.90
17954;DHT22;9102;53.548;9.926;2023-04-25T09:51:04;8.50;99.90
17954;DHT22;9102;53.548;9.926;2023-04-25T09:53:33;8.60;99.90
17954;DHT22;9102;53.548;9.926;2023-04-25T09:56:04;8.70;99.90
17954;DHT22;9102;53.548;9.926;2023-04-25T09:58:32;8.80;99.90
17954;DHT22;9102;53.548;9.926;2023-04-25T10:01:01;9.00;99.90
17954;DHT22;9102;53.548;9.926;2023-04-25T10:03:31;9.10;99.90
17954;DHT22;9102;53.548;9.926;2023-04-25T10:06:00;9.20;99.90
17954;DHT22;9102;53.548;9.926;2023-04-25T10:08:33;9.10;99.90
17954;DHT22;9102;53.548;9.926;2023-04-25T10:11:10;9.30;99.90
17954;DHT22;9102;53.548;9.926;2023-04-25T10:13:40;9.40;99.90
17954;DHT22;9102;53.548;9.926;2023-04-25T10:16:08;9.50;99.90
17954;DHT22;9102;53.548;9.926;2023-04-25T10:18:35;9.80;99.90
17954;DHT22;9102;53.548;9.926;2023-04-25T10:21:04;9.50;99.90
17954;DHT22;9102;53.548;9.926;2023-04-25T10:23:33;9.50;99.90
17954;DHT22;9102;53.548;9.926;2023-04-25T10:26:01;9.50;99.90
17954;DHT22;9102;53.548;9.926;2023-04-25T10:28:28;9.50;99.90
17954;DHT22;9102;53.548;9.926;2023-04-25T10:31:00;9.30;99.90
17954;DHT22;9102;53.548;9.926;2023-04-25T10:33:35;9.50;99.90
17954;DHT22;9102;53.548;9.926;2023-04-25T10:36:09;9.40;99.90
17954;DHT22;9102;53.548;9.926;2023-04-25T10:38:38;9.50;99.90
17954;DHT22;9102;53.548;9.926;2023-04-25T10:41:06;9.50;99.90
17954;DHT22;9102;53.548;9.926;2023-04-25T10:43:36;9.50;99.90
17954;DHT22;9102;53.548;9.926;2023-04-25T10:46:14;9.70;99.90
17954;DHT22;9102;53.548;9.926;2023-04-25T10:48:48;9.90;99.90
17954;DHT22;9102;53.548;9.926;2023-04-25T10:51:22;10.10;99.90
17954;DHT22;9102;53.548;9.926;2023-04-25T10:53:59;10.10;99.90
17954;DHT22;9102;53.548;9.926;2023-04-25T10:56:29;10.20;99.90
17954;DHT22;9102;53.548;9.926;2023-04-25T10:59:07;10.40;99.90
17954;DHT22;9102;53.548;9.926;2023-04-25T11:01:37;10.60;99.90
17954;DHT22;9102;53.548;9.926;2023-04-25T11:04:04;10.50;99.90
17954;DHT22;9102;53.548;9.926;2023-04-25T11:06:37;10.50;99.90
17954;DHT22;9102;53.548;9.926;2023-04-25T11:09:11;10.40;99.90
17954;DHT22;9102;53.548;9.926;2023-04-25T11:11:39;10.00;99.90
17954;DHT22;9102;53.548;9.926;2023-04-25T11:14:06;9.80;99.90
17954;DHT22;9102;53.548;9.926;2023-04-25T11:16:33;9.70;99.90
17954;DHT22;9102;53.548;9.926;2023-04-25T11:19:01;9.80;99.90
17954;DHT22;9102;53.548;9.926;2023-04-25T11:21:29;10.10;99.90
17954;DHT22;9102;53.548;9.926;2023-04-25T11:23:58;10.40;99.90
17954;DHT22;9102;53.548;9.926;2023-04-25T11:26:27;10.70;99.90
17954;DHT22;9102;53.548;9.926;2023-04-25T11:28:57;11.00;99.90
17954;DHT22;9102;53.548;9.926;2023-04-25T11:31:25;11.20;99.90
17954;DHT22;9102;53.548;9.926;2023-04-25T11:33:57;11.30;99.90
17954;DHT22;9102;53.548;9.926;2023-04-25T11:36:24;10.80;99.90
17954;DHT22;9102;53.548;9.926;2023-04-25T11:38:51;9.30;99.90
17954;DHT22;9102;53.548;9.926;2023-04-25T11:41:18;8.00;99.90
17954;DHT22;9102;53.548;9.926;2023-04-25T11:43:47;7.40;99.90
17954;DHT22;9102;53.548;9.926;2023-04-25T11:46:23;7.20;99.90
17954;DHT22;9102;53.548;9.926;2023-04-25T11:48:51;7.20;99.90
17954;DHT22;9102;53.548;9.926;2023-04-25T11:51:17;7.10;99.90
17954;DHT22;9102;53.548;9.926;2023-04-25T11:53:44;7.10;99.90
17954;DHT22;9102;53.548;9.926;2023-04-25T11:56:11;7.20;99.90
17954;DHT22;9102;53.548;9.926;2023-04-25T11:58:56;7.50;99.90
17954;DHT22;9102;53.548;9.926;2023-04-25T12:01:30;7.50;99.90
17954;DHT22;9102;53.548;9.926;2023-04-25T12:03:58;7.80;99.90
17954;DHT22;9102;53.548;9.926;2023-04-25T12:06:28;8.10;99.90
17954;DHT22;9102;53.548;9.926;2023-04-25T12:09:02;8.50;99.90
17954;DHT22;9102;53.548;9.926;2023-04-25T12:11:31;8.90;99.90
17954;DHT22;9102;53.548;9.926;2023-04-25T12:14:03;9.20;99.90
17954;DHT22;9102;53.548;9.926;2023-04-25T12:16:40;9.50;99.90
17954;DHT22;9102;53.548;9.926;2023-04-25T12:19:08;10.00;99.90
17954;DHT22;9102;53.548;9.926;2023-04-25T12:21:34;10.40;99.90
17954;DHT22;9102;53.548;9.926;2023-04-25T12:24:12;10.60;99.90
17954;DHT22;9102;53.548;9.926;2023-04-25T12:26:49;10.70;99.90
17954;DHT22;9102;53.548;9.926;2023-04-25T12:29:20;10.70;99.90
17954;DHT22;9102;53.548;9.926;2023-04-25T12:31:47;10.50;99.90
17954;DHT22;9102;53.548;9.926;2023-04-25T12:34:14;10.20;99.90
17954;DHT22;9102;53.548;9.926;2023-04-25T12:36:41;10.10;99.90
17954;DHT22;9102;53.548;9.926;2023-04-25T12:39:08;9.80;99.90
17954;DHT22;9102;53.548;9.926;2023-04-25T12:41:35;9.70;99.90
17954;DHT22;9102;53.548;9.926;2023-04-25T12:44:03;9.90;99.90
17954;DHT22;9102;53.548;9.926;2023-04-25T12:46:31;10.20;99.90
17954;DHT22;9102;53.548;9.926;2023-04-25T12:48:58;10.70;99.90
17954;DHT22;9102;53.548;9.926;2023-04-25T12:51:25;10.80;99.90
17954;DHT22;9102;53.548;9.926;2023-04-25T12:53:53;10.80;99.90
17954;DHT22;9102;53.548;9.926;2023-04-25T12:56:20;10.60;99.90
17954;DHT22;9102;53.548;9.926;2023-04-25T12:58:47;10.00;99.90
17954;DHT22;9102;53.548;9.926;2023-04-25T13:01:14;9.60;99.90
17954;DHT22;9102;53.548;9.926;2023-04-25T13:03:42;9.40;99.90
17954;DHT22;9102;53.548;9.926;2023-04-25T13:06:09;9.40;99.90
17954;DHT22;9102;53.548;9.926;2023-04-25T13:08:36;9.60;99.90
17954;DHT22;9102;53.548;9.926;2023-04-25T13:11:03;9.90;99.90
17954;DHT22;9102;53.548;9.926;2023-04-25T13:13:30;9.90;99.90
17954;DHT22;9102;53.548;9.926;2023-04-25T13:15:59;10.00;99.90
17954;DHT22;9102;53.548;9.926;2023-04-25T13:18:27;9.80;99.90
17954;DHT22;9102;53.548;9.926;2023-04-25T13:20:55;9.20;99.90
17954;DHT22;9102;53.548;9.926;2023-04-25T13:23:24;7.50;99.90
17954;DHT22;9102;53.548;9.926;2023-04-25T13:25:51;7.10;99.90
17954;DHT22;9102;53.548;9.926;2023-04-25T13:28:18;7.10;99.90
17954;DHT22;9102;53.548;9.926;2023-04-25T13:30:45;7.20;99.90
17954;DHT22;9102;53.548;9.926;2023-04-25T13:33:13;7.50;99.90
17954;DHT22;9102;53.548;9.926;2023-04-25T13:35:40;7.80;99.90
17954;DHT22;9102;53.548;9.926;2023-04-25T13:38:09;8.00;99.90
17954;DHT22;9102;53.548;9.926;2023-04-25T13:40:36;7.90;99.90
17954;DHT22;9102;53.548;9.926;2023-04-25T13:43:02;8.00;99.90
17954;DHT22;9102;53.548;9.926;2023-04-25T13:45:30;8.20;99.90
17954;DHT22;9102;53.548;9.926;2023-04-25T13:47:56;8.50;99.90
17954;DHT22;9102;53.548;9.926;2023-04-25T13:50:23;8.60;99.90
17954;DHT22;9102;53.548;9.926;2023-04-25T13:52:50;8.30;99.90
17954;DHT22;9102;53.548;9.926;2023-04-25T13:55:18;7.50;99.90
17954;DHT22;9102;53.548;9.926;2023-04-25T13:57:45;6.60;99.90
17954;DHT22;9102;53.548;9.926;2023-04-25T14:00:13;6.30;99.90
17954;DHT22;9102;53.548;9.926;2023-04-25T14:02:40;6.10;99.90
17954;DHT22;9102;53.548;9.926;2023-04-25T14:05:07;6.00;99.90
17954;DHT22;9102;53.548;9.926;2023-04-25T14:07:34;6.00;99.90
17954;DHT22;9102;53.548;9.926;2023-04-25T14:10:02;6.00;99.90
17954;DHT22;9102;53.548;9.926;2023-04-25T14:12:31;6.20;99.90
17954;DHT22;9102;53.548;9.926;2023-04-25T14:14:58;6.80;99.90
17954;DHT22;9102;53.548;9.926;2023-04-25T14:17:25;7.10;99.90
17954;DHT22;9102;53.548;9.926;2023-04-25T14:19:52;7.40;99.90
17954;DHT22;9102;53.548;9.926;2023-04-25T14:22:19;7.40;99.90
17954;DHT22;9102;53.548;9.926;2023-04-25T14:24:45;7.60;99.90
17954;DHT22;9102;53.548;9.926;2023-04-25T14:27:12;7.70;99.90
17954;DHT22;9102;53.548;9.926;2023-04-25T14:29:41;7.70;99.90
17954;DHT22;9102;53.548;9.926;2023-04-25T14:32:08;7.70;99.90
17954;DHT22;9102;53.548;9.926;2023-04-25T14:34:35;7.70;99.90
17954;DHT22;9102;53.548;9.926;2023-04-25T14:37:02;7.90;99.90
17954;DHT22;9102;53.548;9.926;2023-04-25T14:39:29;8.00;99.90
17954;DHT22;9102;53.548;9.926;2023-04-25T14:41:56;8.30;99.90
17954;DHT22;9102;53.548;9.926;2023-04-25T14:44:23;8.70;99.90
17954;DHT22;9102;53.548;9.926;2023-04-25T14:46:51;8.90;99.90
17954;DHT22;9102;53.548;9.926;2023-04-25T14:49:18;9.10;99.90
17954;DHT22;9102;53.548;9.926;2023-04-25T14:51:45;9.20;99.90
17954;DHT22;9102;53.548;9.926;2023-04-25T14:54:12;9.20;99.90
17954;DHT22;9102;53.548;9.926;2023-04-25T14:56:39;9.30;99.90
17954;DHT22;9102;53.548;9.926;2023-04-25T14:59:06;9.40;99.90
17954;DHT22;9102;53.548;9.926;2023-04-25T15:01:33;9.50;99.90
17954;DHT22;9102;53.548;9.926;2023-04-25T15:04:01;9.50;99.90
17954;DHT22;9102;53.548;9.926;2023-04-25T15:06:28;9.50;99.90
17954;DHT22;9102;53.548;9.926;2023-04-25T15:08:55;9.50;99.90
17954;DHT22;9102;53.548;9.926;2023-04-25T15:11:23;9.20;99.90
17954;DHT22;9102;53.548;9.926;2023-04-25T15:13:50;8.80;99.90
17954;DHT22;9102;53.548;9.926;2023-04-25T15:16:17;8.20;99.90
17954;DHT22;9102;53.548;9.926;2023-04-25T15:18:44;7.80;99.90
17954;DHT22;9102;53.548;9.926;2023-04-25T15:21:12;7.60;99.90
17954;DHT22;9102;53.548;9.926;2023-04-25T15:23:40;7.50;99.90
17954;DHT22;9102;53.548;9.926;2023-04-25T15:26:07;7.70;99.90
17954;DHT22;9102;53.548;9.926;2023-04-25T15:28:34;7.90;99.90
17954;DHT22;9102;53.548;9.926;2023-04-25T15:31:01;8.10;99.90
17954;DHT22;9102;53.548;9.926;2023-04-25T15:33:27;8.10;99.90
17954;DHT22;9102;53.548;9.926;2023-04-25T15:35:54;8.20;99.90
17954;DHT22;9102;53.548;9.926;2023-04-25T15:38:24;8.30;99.90
17954;DHT22;9102;53.548;9.926;2023-04-25T15:40:52;8.50;99.90
17954;DHT22;9102;53.548;9.926;2023-04-25T15:43:18;8.60;99.90
17954;DHT22;9102;53.548;9.926;2023-04-25T15:45:45;8.70;99.90
17954;DHT22;9102;53.548;9.926;2023-04-25T15:48:12;8.70;99.90
17954;DHT22;9102;53.548;9.926;2023-04-25T15:50:40;8.70;99.90
17954;DHT22;9102;53.548;9.926;2023-04-25T15:53:07;8.70;99.90
17954;DHT22;9102;53.548;9.926;2023-04-25T15:55:35;8.70;99.90
17954;DHT22;9102;53.548;9.926;2023-04-25T15:58:02;8.80;99.90
17954;DHT22;9102;53.548;9.926;2023-04-25T16:00:29;8.80;99.90
17954;DHT22;9102;53.548;9.926;2023-04-25T16:02:59;8.60;99.90